Time;durP1;ratioP1;P1;durP2;ratioP2;P2;SDS_P1;SDS_P2;PMS_P1;PMS_P2;Temp;Humidity;BMP_temperature;BMP_pressure;BME280_temperature;BME280_humidity;BME280_pressure;Samples;Min_cycle;Max_cycle;Signal;HPM_P1;HPM_P2
2023/07/25 00:01:07;;;;;;;9.93;4.85;;;;;;;26.52;45.70;98585.44;4417010;32;33961;-72
2023/07/25 00:03:35;;;;;;;11.35;4.57;;;;;;;27.32;43.96;98572.50;4419095;32;33783;-71
2023/07/25 00:06:03;;;;;;;10.98;4.22;;;;;;;27.64;43.04;98524.06;4417397;32;33401;-71
2023/07/25 00:08:31;;;;;;;10.95;4.50;;;;;;;28.08;42.10;98513.03;4418223;32;33610;-72
2023/07/25 00:11:00;;;;;;;10.15;4.75;;;;;;;27.74;43.41;98519.78;4426204;32;35031;-70
2023/07/25 00:13:27;;;;;;;9.98;4.32;;;;;;;28.09;42.72;98517.47;4417533;32;34190;-70
2023/07/25 00:15:55;;;;;;;8.48;4.12;;;;;;;28.21;42.41;98511.81;4423611;32;32520;-70
2023/07/25 00:18:23;;;;;;;8.07;3.65;;;;;;;28.33;41.98;98515.22;4429060;32;34669;-71
2023/07/25 00:20:50;;;;;;;9.55;3.85;;;;;;;28.64;41.17;98526.56;4429128;32;33822;-69
2023/07/25 00:23:18;;;;;;;12.20;4.55;;;;;;;28.72;41.23;98537.09;4432855;32;34838;-69
2023/07/25 00:25:46;;;;;;;12.93;4.12;;;;;;;28.84;40.53;98536.91;4419060;32;35221;-68
2023/07/25 00:28:13;;;;;;;6.70;3.67;;;;;;;28.88;40.53;98531.72;4432997;32;33717;-68
2023/07/25 00:30:41;;;;;;;10.38;4.32;;;;;;;28.73;41.02;98538.75;4433154;32;34753;-68
2023/07/25 00:33:09;;;;;;;12.88;4.45;;;;;;;28.65;41.09;98554.94;4428137;32;34022;-67
2023/07/25 00:35:36;;;;;;;11.77;3.75;;;;;;;28.54;41.36;98560.34;4419566;32;33892;-67
2023/07/25 00:38:04;;;;;;;9.68;4.47;;;;;;;28.82;40.63;98574.06;4429001;32;34008;-67
2023/07/25 00:40:37;;;;;;;14.60;4.37;;;;;;;28.82;40.38;98583.16;4420123;32;34369;-70
2023/07/25 00:43:05;;;;;;;9.98;4.28;;;;;;;28.74;40.70;98600.16;4432728;32;34275;-69
2023/07/25 00:45:33;;;;;;;6.20;3.60;;;;;;;28.58;41.48;98612.13;4430084;32;33737;-69
2023/07/25 00:48:02;;;;;;;7.15;3.72;;;;;;;28.70;41.32;98621.03;4420096;32;33769;-68
2023/07/25 00:50:30;;;;;;;9.05;4.03;;;;;;;28.36;42.52;98632.19;4426448;32;33940;-68
2023/07/25 00:52:58;;;;;;;10.00;4.87;;;;;;;28.46;42.65;98640.59;4434375;32;35220;-70
2023/07/25 00:55:27;;;;;;;8.13;4.87;;;;;;;28.52;42.69;98647.81;4432803;32;33630;-66
2023/07/25 00:57:55;;;;;;;10.75;4.65;;;;;;;27.98;43.29;98664.19;4419217;32;35297;-67
2023/07/25 01:00:23;;;;;;;7.87;3.58;;;;;;;26.86;45.53;98679.62;4432291;32;33017;-70
2023/07/25 01:02:50;;;;;;;10.40;4.12;;;;;;;25.36;51.59;98696.88;4432684;32;34643;-66
2023/07/25 01:05:19;;;;;;;9.45;3.65;;;;;;;25.21;53.22;98700.91;4435607;32;33157;-66
2023/07/25 01:07:47;;;;;;;10.00;3.08;;;;;;;24.85;55.00;98691.72;4437728;32;35002;-68
2023/07/25 01:10:14;;;;;;;18.30;3.97;;;;;;;24.37;57.69;98699.94;4412289;32;33772;-69
2023/07/25 01:12:42;;;;;;;6.57;2.80;;;;;;;24.43;58.84;98700.91;4425963;32;33916;-67
2023/07/25 01:15:10;;;;;;;9.07;3.70;;;;;;;24.11;60.70;98707.38;4425565;32;34148;-67
2023/07/25 01:17:38;;;;;;;5.78;2.58;;;;;;;24.02;61.92;98714.22;4433970;32;34718;-69
2023/07/25 01:20:07;;;;;;;7.03;2.95;;;;;;;23.64;63.77;98725.28;4418370;32;33777;-72
2023/07/25 01:22:36;;;;;;;9.60;3.60;;;;;;;23.46;63.91;98699.56;4437739;32;34799;-73
2023/07/25 01:25:04;;;;;;;7.35;3.35;;;;;;;23.64;64.05;98701.50;4418028;32;34404;-71
2023/07/25 01:27:32;;;;;;;4.50;2.65;;;;;;;23.47;64.25;98703.97;4431916;32;33896;-72
2023/07/25 01:29:59;;;;;;;16.00;4.20;;;;;;;23.85;63.64;98683.06;4432159;32;33804;-71
2023/07/25 01:32:30;;;;;;;10.73;3.20;;;;;;;24.30;62.16;98677.28;4431620;32;34588;-71
2023/07/25 01:34:58;;;;;;;7.50;2.28;;;;;;;24.40;61.79;98672.97;4433891;32;34661;-71
2023/07/25 01:37:26;;;;;;;8.85;3.58;;;;;;;24.19;61.97;98670.69;4424294;32;33605;-71
2023/07/25 01:39:53;;;;;;;7.47;2.75;;;;;;;24.65;60.77;98630.97;4435979;32;33597;-71
2023/07/25 01:42:21;;;;;;;8.85;3.08;;;;;;;24.99;59.41;98610.25;4431483;32;34875;-71
2023/07/25 01:44:49;;;;;;;6.03;3.05;;;;;;;25.38;57.99;98586.00;4425997;32;33427;-70
2023/07/25 01:47:16;;;;;;;9.20;2.83;;;;;;;25.67;57.18;98575.16;4430363;32;34948;-70
2023/07/25 01:49:44;;;;;;;7.97;3.20;;;;;;;25.58;57.92;98585.63;4437305;32;34901;-70
2023/07/25 01:52:12;;;;;;;7.10;2.72;;;;;;;25.83;57.41;98552.50;4435621;32;33719;-70
2023/07/25 01:54:40;;;;;;;6.22;2.72;;;;;;;25.78;58.17;98535.94;4435551;32;33383;-70
2023/07/25 01:57:07;;;;;;;5.90;2.83;;;;;;;25.52;58.93;98518.09;4433254;32;33576;-70
2023/07/25 01:59:35;;;;;;;5.87;2.75;;;;;;;25.95;57.43;98493.00;4426654;32;33748;-70
2023/07/25 02:02:03;;;;;;;5.20;2.45;;;;;;;25.91;58.00;98486.34;4431503;32;34271;-70
2023/07/25 02:04:31;;;;;;;7.32;2.30;;;;;;;26.05;57.30;98503.31;4424012;32;33396;-70
2023/07/25 02:06:58;;;;;;;6.72;3.25;;;;;;;25.82;57.71;98493.28;4429837;32;33607;-70
2023/07/25 02:09:26;;;;;;;6.60;2.83;;;;;;;25.98;57.20;98494.44;4425446;32;33729;-70
2023/07/25 02:11:54;;;;;;;6.70;2.72;;;;;;;26.25;56.75;98514.66;4435221;32;35244;-70
2023/07/25 02:14:22;;;;;;;10.98;2.75;;;;;;;26.24;56.76;98521.25;4428315;32;33648;-70
2023/07/25 02:16:50;;;;;;;8.88;2.53;;;;;;;26.34;55.89;98550.78;4430413;32;32960;-70
2023/07/25 02:19:18;;;;;;;6.43;2.35;;;;;;;26.32;55.78;98557.56;4426682;32;35275;-70
2023/07/25 02:21:45;;;;;;;6.65;2.47;;;;;;;26.17;56.21;98580.91;4437385;32;33693;-69
2023/07/25 02:24:13;;;;;;;6.65;2.42;;;;;;;26.07;57.46;98591.66;4433533;32;34986;-70
2023/07/25 02:26:41;;;;;;;6.60;2.85;;;;;;;26.24;57.30;98587.06;4434707;32;33826;-70
2023/07/25 02:29:08;;;;;;;10.20;2.78;;;;;;;25.74;58.51;98538.31;4422748;32;35123;-70
2023/07/25 02:31:36;;;;;;;5.65;2.55;;;;;;;26.11;57.39;98411.88;4431612;32;34954;-69
2023/07/25 02:34:04;;;;;;;5.87;2.70;;;;;;;26.10;57.05;98393.75;4431529;32;31983;-69
2023/07/25 02:36:31;;;;;;;8.63;3.20;;;;;;;25.54;59.57;98439.25;4434734;32;33604;-70
2023/07/25 02:38:59;;;;;;;8.13;3.53;;;;;;;25.68;58.92;98376.78;4437974;32;34229;-70
2023/07/25 02:41:27;;;;;;;8.07;3.00;;;;;;;26.00;58.00;98377.13;4432779;32;35279;-70
2023/07/25 02:43:55;;;;;;;7.18;2.55;;;;;;;26.16;57.78;98365.34;4432564;32;33704;-70
2023/07/25 02:46:22;;;;;;;4.80;2.28;;;;;;;26.29;57.45;98357.84;4427122;32;33688;-70
2023/07/25 02:48:50;;;;;;;5.12;2.22;;;;;;;26.30;57.38;98378.72;4432141;32;34363;-70
2023/07/25 02:51:18;;;;;;;11.88;2.60;;;;;;;25.69;58.95;98383.94;4434759;32;35062;-70
2023/07/25 02:53:45;;;;;;;4.50;2.58;;;;;;;25.56;59.21;98401.50;4434003;32;33220;-70
2023/07/25 02:56:13;;;;;;;14.20;3.53;;;;;;;25.68;58.88;98407.78;4424318;32;34638;-70
2023/07/25 02:58:41;;;;;;;5.72;2.85;;;;;;;25.83;58.28;98410.00;4431566;32;33896;-70
2023/07/25 03:01:08;;;;;;;11.32;3.10;;;;;;;25.69;58.68;98427.78;4428906;32;33679;-70
2023/07/25 03:03:36;;;;;;;6.95;2.47;;;;;;;25.76;58.14;98445.75;4431999;32;33218;-70
2023/07/25 03:06:04;;;;;;;5.93;2.20;;;;;;;25.85;57.65;98453.63;4434795;32;33397;-70
2023/07/25 03:08:31;;;;;;;6.50;2.87;;;;;;;25.52;58.18;98460.59;4424667;32;33958;-70
2023/07/25 03:10:59;;;;;;;11.20;1.95;;;;;;;25.59;57.23;98450.34;4436922;32;34190;-70
2023/07/25 03:13:27;;;;;;;5.90;3.33;;;;;;;25.79;56.76;98458.94;4433757;32;33547;-70
2023/07/25 03:15:54;;;;;;;4.93;2.37;;;;;;;25.67;56.86;98465.56;4430164;32;34737;-70
2023/07/25 03:18:22;;;;;;;6.37;3.20;;;;;;;25.83;56.12;98463.97;4433418;32;33707;-70
2023/07/25 03:20:49;;;;;;;10.85;2.85;;;;;;;25.77;56.19;98468.50;4431482;32;34846;-70
2023/07/25 03:23:17;;;;;;;6.22;2.45;;;;;;;25.78;56.20;98449.06;4425614;32;33414;-70
2023/07/25 03:25:45;;;;;;;4.10;1.58;;;;;;;25.90;55.81;98459.16;4422242;32;34798;-70
2023/07/25 03:28:12;;;;;;;5.87;2.58;;;;;;;25.93;55.14;98465.00;4428740;32;34140;-68
2023/07/25 03:30:40;;;;;;;10.77;2.55;;;;;;;25.92;55.53;98482.53;4430659;32;35421;-67
2023/07/25 03:33:08;;;;;;;10.43;2.72;;;;;;;25.61;57.15;98494.75;4418124;32;33345;-68
2023/07/25 03:35:36;;;;;;;6.40;2.30;;;;;;;25.60;57.31;98498.56;4419668;32;33648;-68
2023/07/25 03:38:04;;;;;;;8.13;2.95;;;;;;;25.89;56.49;98507.69;4413469;32;32701;-68
2023/07/25 03:40:31;;;;;;;6.22;2.53;;;;;;;26.07;56.47;98503.06;4423025;32;33981;-68
2023/07/25 03:42:59;;;;;;;10.52;2.97;;;;;;;25.89;56.78;98480.28;4431203;32;33362;-68
2023/07/25 03:45:26;;;;;;;6.32;2.20;;;;;;;26.12;56.00;98479.31;4417133;32;33682;-69
2023/07/25 03:47:54;;;;;;;5.30;3.17;;;;;;;26.08;56.14;98475.41;4416243;32;34552;-68
2023/07/25 03:50:22;;;;;;;10.35;2.70;;;;;;;26.09;56.20;98477.06;4426425;32;34052;-68
2023/07/25 03:52:49;;;;;;;7.43;3.28;;;;;;;26.28;55.84;98477.69;4432475;32;33894;-69
2023/07/25 03:55:17;;;;;;;12.52;2.85;;;;;;;25.99;56.51;98460.44;4434190;32;34913;-68
2023/07/25 03:57:45;;;;;;;3.35;1.85;;;;;;;26.17;56.08;98475.88;4430729;32;33917;-70
2023/07/25 04:00:13;;;;;;;6.70;2.45;;;;;;;25.60;57.72;98464.88;4429158;32;35137;-71
2023/07/25 04:02:41;;;;;;;6.87;2.50;;;;;;;25.92;56.74;98476.22;4420377;32;33730;-70
2023/07/25 04:05:08;;;;;;;5.15;2.17;;;;;;;26.10;56.03;98494.34;4432691;32;33263;-70
2023/07/25 04:07:36;;;;;;;4.47;2.60;;;;;;;25.72;56.90;98484.84;4437374;32;34820;-71
2023/07/25 04:10:05;;;;;;;9.50;2.50;;;;;;;25.49;57.74;98489.31;4433480;32;34103;-71
2023/07/25 04:12:32;;;;;;;7.47;2.75;;;;;;;25.75;57.10;98478.88;4442550;32;33059;-71
2023/07/25 04:15:00;;;;;;;10.40;3.35;;;;;;;25.78;56.81;98473.75;4428174;32;35031;-67
2023/07/25 04:17:28;;;;;;;5.68;2.75;;;;;;;25.98;56.32;98478.81;4425536;32;32892;-68
2023/07/25 04:19:56;;;;;;;7.62;2.78;;;;;;;25.88;56.62;98475.88;4433121;32;32247;-67
2023/07/25 04:22:23;;;;;;;9.45;2.25;;;;;;;25.81;57.02;98474.34;4427334;32;33185;-68
2023/07/25 04:24:51;;;;;;;7.20;2.55;;;;;;;25.60;57.77;98468.44;4435715;32;34813;-67
2023/07/25 04:27:20;;;;;;;7.18;2.80;;;;;;;25.63;57.86;98465.22;4437547;32;34082;-67
2023/07/25 04:29:48;;;;;;;5.50;2.78;;;;;;;25.83;57.38;98463.97;4434165;32;33492;-67
2023/07/25 04:32:15;;;;;;;9.65;2.47;;;;;;;25.88;57.23;98464.09;4428731;32;33402;-67
2023/07/25 04:34:43;;;;;;;10.25;2.62;;;;;;;25.88;57.28;98469.56;4428687;32;34702;-67
2023/07/25 04:37:10;;;;;;;6.87;3.33;;;;;;;25.92;57.36;98462.50;4435446;32;34020;-66
2023/07/25 04:39:38;;;;;;;5.50;1.95;;;;;;;25.92;57.17;98474.31;4428434;32;33921;-67
2023/07/25 04:42:06;;;;;;;5.82;2.05;;;;;;;25.99;57.53;98476.91;4438942;32;33215;-67
2023/07/25 04:44:34;;;;;;;6.20;2.28;;;;;;;26.08;57.24;98485.56;4437107;32;33651;-68
2023/07/25 04:47:01;;;;;;;10.18;2.55;;;;;;;26.14;56.71;98485.41;4438702;32;35217;-69
2023/07/25 04:49:29;;;;;;;8.15;3.35;;;;;;;26.12;56.54;98482.06;4439206;32;34232;-69
2023/07/25 04:51:57;;;;;;;4.47;2.12;;;;;;;26.22;56.51;98479.50;4435519;32;35223;-68
2023/07/25 04:54:24;;;;;;;4.40;1.92;;;;;;;26.26;56.76;98471.66;4431346;32;33686;-69
2023/07/25 04:56:52;;;;;;;5.90;2.25;;;;;;;26.21;56.72;98457.84;4429618;32;33775;-68
2023/07/25 04:59:20;;;;;;;8.73;3.08;;;;;;;26.43;56.02;98456.03;4436533;32;34250;-69
2023/07/25 05:01:47;;;;;;;6.90;2.47;;;;;;;26.59;55.67;98456.31;4423968;32;33323;-69
2023/07/25 05:04:15;;;;;;;8.02;2.97;;;;;;;26.64;55.08;98453.63;4429180;32;34746;-68
2023/07/25 05:06:44;;;;;;;6.82;2.62;;;;;;;26.71;55.16;98437.84;4425653;32;34978;-69
2023/07/25 05:09:12;;;;;;;5.60;2.28;;;;;;;26.74;55.84;98423.59;4431042;32;34922;-68
2023/07/25 05:11:40;;;;;;;7.30;2.92;;;;;;;26.72;55.16;98412.06;4444781;32;33396;-69
2023/07/25 05:14:07;;;;;;;5.55;2.58;;;;;;;26.71;55.70;98426.88;4428175;32;33959;-68
2023/07/25 05:16:35;;;;;;;8.73;3.12;;;;;;;26.83;55.58;98437.72;4436945;32;34034;-69
2023/07/25 05:19:03;;;;;;;6.20;3.22;;;;;;;26.87;55.45;98431.50;4434960;32;33825;-69
2023/07/25 05:21:30;;;;;;;8.55;3.60;;;;;;;27.23;54.21;98425.69;4447351;32;34100;-69
2023/07/25 05:23:58;;;;;;;12.15;3.40;;;;;;;26.99;54.34;98414.06;4429238;32;33760;-69
2023/07/25 05:26:26;;;;;;;5.28;2.17;;;;;;;26.98;54.59;98413.25;4429385;32;34119;-69
2023/07/25 05:28:54;;;;;;;6.05;2.15;;;;;;;27.15;54.64;98421.47;4433921;32;35327;-69
2023/07/25 05:31:21;;;;;;;8.77;2.72;;;;;;;26.81;56.16;98420.69;4430071;32;34203;-69
2023/07/25 05:33:49;;;;;;;7.03;2.85;;;;;;;27.35;54.29;98420.88;4426692;32;34865;-69
2023/07/25 05:36:16;;;;;;;9.20;3.10;;;;;;;27.38;54.18;98414.88;4418426;32;34847;-68
2023/07/25 05:38:44;;;;;;;5.82;2.58;;;;;;;27.06;54.68;98420.22;4430021;32;34789;-69
2023/07/25 05:41:12;;;;;;;9.30;3.40;;;;;;;27.53;53.93;98419.75;4438673;32;33154;-69
2023/07/25 05:43:39;;;;;;;9.82;2.85;;;;;;;27.45;54.39;98417.44;4428856;32;33579;-65
2023/07/25 05:46:08;;;;;;;6.90;3.15;;;;;;;27.53;53.88;98417.00;4430000;32;33783;-68
2023/07/25 05:48:36;;;;;;;8.13;3.05;;;;;;;27.69;53.20;98420.75;4394220;32;35213;-69
2023/07/25 05:51:04;;;;;;;5.05;2.37;;;;;;;27.63;52.91;98431.69;4398670;32;33631;-68
2023/07/25 05:53:32;;;;;;;6.87;3.03;;;;;;;27.77;53.03;98445.91;4399665;32;33522;-68
2023/07/25 05:56:00;;;;;;;6.87;3.00;;;;;;;27.84;51.57;98459.44;4385578;32;33622;-68
2023/07/25 05:58:28;;;;;;;9.23;3.20;;;;;;;27.75;51.31;98453.53;4397181;32;33751;-68
2023/07/25 06:00:55;;;;;;;7.78;3.03;;;;;;;27.82;51.39;98456.09;4395782;32;32863;-68
2023/07/25 06:03:23;;;;;;;6.40;3.08;;;;;;;27.76;50.88;98452.44;4388836;32;34772;-69
2023/07/25 06:05:51;;;;;;;12.85;3.00;;;;;;;27.73;51.71;98452.94;4388045;32;33881;-68
2023/07/25 06:08:18;;;;;;;7.12;3.50;;;;;;;27.85;50.78;98439.94;4387984;32;34135;-69
2023/07/25 06:10:46;;;;;;;8.35;3.12;;;;;;;27.88;50.99;98435.84;4386604;32;33608;-68
2023/07/25 06:13:14;;;;;;;6.28;3.00;;;;;;;28.01;50.94;98426.34;4386164;32;33904;-68
2023/07/25 06:15:41;;;;;;;11.63;2.95;;;;;;;27.94;51.62;98428.47;4374210;32;33576;-68
2023/07/25 06:18:09;;;;;;;13.32;3.12;;;;;;;27.68;49.57;98427.34;4376705;32;34150;-69
2023/07/25 06:20:37;;;;;;;7.30;2.80;;;;;;;27.80;48.88;98434.38;4407254;32;34380;-69
2023/07/25 06:23:05;;;;;;;6.47;3.05;;;;;;;28.15;48.36;98429.50;4412630;32;33790;-69
2023/07/25 06:25:32;;;;;;;10.85;3.33;;;;;;;28.13;47.52;98423.44;4418522;32;33965;-69
2023/07/25 06:28:00;;;;;;;9.10;2.35;;;;;;;28.30;47.58;98410.38;4415490;32;32784;-69
2023/07/25 06:30:28;;;;;;;5.78;2.72;;;;;;;28.14;46.89;98414.09;4412464;32;33474;-69
2023/07/25 06:32:56;;;;;;;7.70;2.80;;;;;;;28.17;47.23;98419.06;4411934;32;34631;-69
2023/07/25 06:35:23;;;;;;;7.32;3.40;;;;;;;28.37;47.18;98407.41;4416563;32;35168;-69
2023/07/25 06:37:51;;;;;;;8.43;2.83;;;;;;;28.24;47.77;98403.16;4418104;32;34048;-70
2023/07/25 06:40:19;;;;;;;6.60;2.53;;;;;;;28.07;47.67;98395.88;4419480;32;33520;-70
2023/07/25 06:42:46;;;;;;;7.30;2.97;;;;;;;28.31;47.36;98388.13;4418056;32;33508;-70
2023/07/25 06:45:14;;;;;;;6.82;2.92;;;;;;;28.66;45.80;98396.91;4417542;32;33863;-69
2023/07/25 06:47:42;;;;;;;7.22;3.15;;;;;;;28.71;45.60;98381.25;4410984;32;33729;-69
2023/07/25 06:50:11;;;;;;;6.37;2.58;;;;;;;28.87;45.37;98379.44;4416102;32;33484;-69
2023/07/25 06:52:38;;;;;;;5.78;2.95;;;;;;;28.53;45.02;98385.25;4385003;32;33446;-69
2023/07/25 06:55:06;;;;;;;7.00;2.95;;;;;;;28.62;44.94;98369.09;4385189;32;33784;-69
2023/07/25 06:57:34;;;;;;;10.10;3.28;;;;;;;28.58;45.65;98358.91;4398570;32;33844;-69
2023/07/25 07:00:03;;;;;;;12.27;3.90;;;;;;;29.03;45.03;98355.59;4391413;32;33211;-69
2023/07/25 07:02:32;;;;;;;8.27;2.97;;;;;;;29.18;43.90;98354.81;4414848;32;35154;-69
2023/07/25 07:05:00;;;;;;;9.82;3.25;;;;;;;29.20;43.69;98350.69;4422449;32;35170;-69
2023/07/25 07:07:41;;;;;;;7.78;3.05;;;;;;;29.20;44.37;98345.19;4416975;32;33982;-69
2023/07/25 07:10:09;;;;;;;6.68;3.17;;;;;;;29.21;43.51;98329.47;4417955;32;33280;-69
2023/07/25 07:12:37;;;;;;;5.95;3.20;;;;;;;29.22;44.35;98320.94;4419306;32;33657;-70
2023/07/25 07:15:06;;;;;;;6.78;3.10;;;;;;;28.94;45.80;98324.94;4421128;32;33333;-70
2023/07/25 07:17:33;;;;;;;6.62;2.78;;;;;;;29.36;44.34;98320.44;4414937;32;33755;-69
2023/07/25 07:20:01;;;;;;;6.78;3.47;;;;;;;29.56;44.36;98317.72;4409703;32;34496;-70
2023/07/25 07:22:29;;;;;;;6.18;3.35;;;;;;;29.58;43.45;98306.44;4417687;32;34856;-69
2023/07/25 07:24:56;;;;;;;8.55;3.37;;;;;;;29.56;43.55;98308.63;4409561;32;33410;-69
2023/07/25 07:27:24;;;;;;;6.87;3.15;;;;;;;29.46;44.15;98310.25;4424128;32;33881;-70
2023/07/25 07:29:52;;;;;;;7.43;2.62;;;;;;;29.74;43.32;98299.88;4416504;32;32446;-70
2023/07/25 07:32:19;;;;;;;13.38;3.42;;;;;;;29.73;43.92;98295.47;4426528;32;34954;-70
2023/07/25 07:34:47;;;;;;;6.90;2.80;;;;;;;29.44;42.95;98300.63;4425396;32;33725;-70
2023/07/25 07:37:15;;;;;;;5.90;3.17;;;;;;;29.50;42.24;98299.50;4418877;32;34187;-70
2023/07/25 07:39:42;;;;;;;8.25;3.00;;;;;;;29.65;41.59;98293.22;4420292;32;34786;-69
2023/07/25 07:42:10;;;;;;;5.82;2.20;;;;;;;29.69;42.86;98297.09;4423370;32;33907;-69
2023/07/25 07:44:38;;;;;;;8.75;2.42;;;;;;;29.82;42.72;98292.97;4424644;32;34971;-70
2023/07/25 07:47:06;;;;;;;6.95;3.03;;;;;;;29.56;42.57;98311.38;4422630;32;33772;-71
2023/07/25 07:49:34;;;;;;;7.20;2.75;;;;;;;29.48;43.23;98307.25;4425717;32;34127;-70
2023/07/25 07:52:02;;;;;;;6.97;2.75;;;;;;;29.58;44.19;98306.44;4425839;32;34630;-71
2023/07/25 07:54:33;;;;;;;6.00;3.40;;;;;;;29.42;45.17;98302.81;4421888;32;35346;-70
2023/07/25 07:57:00;;;;;;;8.93;3.53;;;;;;;29.32;46.21;98300.87;4422143;32;34548;-70
2023/07/25 07:59:28;;;;;;;6.43;2.80;;;;;;;29.35;45.92;98302.25;4422999;32;33757;-69
2023/07/25 08:01:56;;;;;;;6.82;2.45;;;;;;;28.99;46.89;98304.88;4419543;32;34582;-70
2023/07/25 08:04:23;;;;;;;7.20;2.35;;;;;;;28.80;47.48;98312.78;4414778;32;35327;-69
2023/07/25 08:06:51;;;;;;;7.80;3.20;;;;;;;29.26;46.29;98304.69;4412000;32;33963;-69
2023/07/25 08:09:19;;;;;;;10.45;3.62;;;;;;;29.24;46.54;98295.88;4407913;32;33321;-70
2023/07/25 08:11:47;;;;;;;9.40;3.53;;;;;;;28.91;47.35;98297.12;4413749;32;34023;-70
2023/07/25 08:14:14;;;;;;;8.90;3.33;;;;;;;28.78;47.30;98307.50;4416499;32;33794;-69
2023/07/25 08:16:42;;;;;;;6.15;2.15;;;;;;;28.90;46.53;98303.72;4417525;32;35186;-70
2023/07/25 08:19:10;;;;;;;4.87;2.80;;;;;;;29.01;46.09;98288.91;4410771;32;33083;-71
2023/07/25 08:21:38;;;;;;;5.15;2.53;;;;;;;29.09;45.98;98284.81;4413168;32;34752;-71
2023/07/25 08:24:06;;;;;;;8.90;3.05;;;;;;;29.01;45.96;98286.97;4418843;32;34120;-71
2023/07/25 08:26:34;;;;;;;7.22;2.95;;;;;;;28.86;46.09;98275.06;4418756;32;35222;-70
2023/07/25 08:29:01;;;;;;;6.97;3.33;;;;;;;28.61;46.40;98271.09;4416105;32;34384;-70
2023/07/25 08:31:29;;;;;;;7.68;2.75;;;;;;;28.87;45.73;98266.53;4414455;32;33905;-69
2023/07/25 08:33:57;;;;;;;5.78;2.47;;;;;;;28.74;46.21;98261.53;4416663;32;33453;-70
2023/07/25 08:36:25;;;;;;;6.53;2.17;;;;;;;28.76;46.32;98265.69;4416409;32;33748;-71
2023/07/25 08:38:53;;;;;;;9.02;2.83;;;;;;;28.75;47.07;98268.69;4414188;32;33621;-72
2023/07/25 08:41:25;;;;;;;11.52;2.90;;;;;;;28.56;48.97;98273.81;4414922;32;33847;-70
2023/07/25 08:43:54;;;;;;;10.35;2.95;;;;;;;28.54;49.64;98276.84;4397450;32;34056;-70
2023/07/25 08:46:25;;;;;;;5.35;2.62;;;;;;;28.33;50.62;98266.78;4413431;32;33698;-70
2023/07/25 08:49:00;;;;;;;14.30;2.45;;;;;;;28.36;50.16;98277.25;4394209;32;33788;-71
2023/07/25 08:51:28;;;;;;;;;;;;;;;28.27;50.96;98271.41;4408715;32;33462;-71
2023/07/25 08:54:02;;;;;;;9.35;2.85;;;;;;;28.24;51.53;98276.63;4412942;32;35179;-70
2023/07/25 08:56:30;;;;;;;7.03;3.28;;;;;;;27.52;53.34;98308.19;4404845;32;33502;-71
2023/07/25 08:58:58;;;;;;;4.10;2.22;;;;;;;28.12;51.91;98317.25;4401273;32;33443;-71
2023/07/25 09:01:27;;;;;;;5.45;2.15;;;;;;;28.09;52.49;98324.94;4394386;32;33597;-71
2023/07/25 09:03:55;;;;;;;6.75;2.40;;;;;;;28.18;52.38;98332.69;4403394;32;33201;-71
2023/07/25 09:06:23;;;;;;;7.20;2.40;;;;;;;28.08;52.75;98383.78;4389946;32;35192;-71
2023/07/25 09:08:50;;;;;;;9.48;3.17;;;;;;;28.09;52.74;98459.72;4384678;32;32351;-69
2023/07/25 09:11:19;;;;;;;16.95;3.72;;;;;;;27.27;55.78;98567.75;4386676;32;32004;-69
2023/07/25 09:13:50;;;;;;;7.95;2.65;;;;;;;26.16;59.02;98616.78;4387540;32;33599;-69
2023/07/25 09:16:17;;;;;;;7.00;2.83;;;;;;;25.67;61.68;98657.34;4388697;32;34865;-69
2023/07/25 09:18:45;;;;;;;6.93;2.65;;;;;;;25.36;62.94;98634.75;4391465;32;33164;-69
2023/07/25 09:21:14;;;;;;;6.93;3.00;;;;;;;25.48;63.38;98615.53;4401682;32;33582;-69
2023/07/25 09:23:55;;;;;;;7.85;2.95;;;;;;;25.37;63.92;98584.34;4402681;32;33871;-69
2023/07/25 09:26:30;;;;;;;8.38;2.85;;;;;;;25.32;64.93;98579.56;4400793;32;33853;-69
2023/07/25 09:28:59;;;;;;;6.93;2.87;;;;;;;25.53;63.56;98574.59;4400036;32;33403;-69
2023/07/25 09:31:28;;;;;;;8.52;3.53;;;;;;;24.59;66.77;98588.12;4403615;32;33874;-69
2023/07/25 09:33:56;;;;;;;8.07;3.60;;;;;;;24.82;66.27;98577.25;4409280;32;34044;-69
2023/07/25 09:36:29;;;;;;;5.55;2.87;;;;;;;24.78;65.09;98567.87;4406436;32;33877;-70
2023/07/25 09:38:59;;;;;;;8.95;3.17;;;;;;;24.51;66.15;98564.69;4407061;32;34668;-70
2023/07/25 09:41:26;;;;;;;7.37;3.60;;;;;;;24.01;66.69;98547.69;4426261;32;34496;-70
2023/07/25 09:44:02;;;;;;;4.87;2.78;;;;;;;24.40;67.01;98558.09;4426152;32;35346;-68
2023/07/25 09:46:30;;;;;;;8.18;3.12;;;;;;;25.08;64.40;98548.62;4424020;32;32561;-67
2023/07/25 09:48:57;;;;;;;8.57;3.85;;;;;;;24.87;64.70;98519.06;4427247;32;31966;-68
2023/07/25 09:51:25;;;;;;;8.30;3.75;;;;;;;25.29;62.86;98495.16;4428438;32;33989;-68
2023/07/25 09:53:55;;;;;;;19.23;3.60;;;;;;;25.45;62.33;98493.59;4424451;32;35309;-67
2023/07/25 09:56:24;;;;;;;7.65;2.90;;;;;;;24.91;64.06;98456.50;4425722;32;34274;-67
2023/07/25 09:58:53;;;;;;;8.23;2.65;;;;;;;25.06;63.42;98429.47;4427326;32;34153;-67
2023/07/25 10:01:35;;;;;;;10.52;3.72;;;;;;;25.54;62.56;98423.66;4421574;32;33176;-67
2023/07/25 10:04:04;;;;;;;5.32;2.80;;;;;;;25.24;63.22;98432.09;4412490;32;35971;-67
2023/07/25 10:06:35;;;;;;;7.25;2.37;;;;;;;25.53;62.45;98430.22;4417148;32;34414;-71
2023/07/25 10:09:03;;;;;;;7.80;2.42;;;;;;;25.37;62.68;98447.41;4418340;32;33343;-69
2023/07/25 10:11:31;;;;;;;8.30;3.47;;;;;;;25.49;62.86;98459.19;4419581;32;33574;-69
2023/07/25 10:14:00;;;;;;;7.68;3.17;;;;;;;25.75;62.08;98478.88;4402095;32;32769;-69
2023/07/25 10:16:28;;;;;;;7.05;2.65;;;;;;;25.74;61.71;98499.94;4410473;32;34266;-69
2023/07/25 10:18:58;;;;;;;9.52;3.50;;;;;;;25.79;62.09;98508.28;4417794;32;34425;-69
2023/07/25 10:21:29;;;;;;;5.35;2.47;;;;;;;25.88;62.27;98540.84;4417435;32;36179;-69
2023/07/25 10:24:00;;;;;;;6.72;2.80;;;;;;;25.01;64.58;98545.16;4420706;32;34002;-69
2023/07/25 10:26:27;;;;;;;8.30;3.20;;;;;;;24.43;66.92;98534.97;4420546;32;34100;-68
2023/07/25 10:28:59;;;;;;;10.00;2.55;;;;;;;24.35;67.63;98516.94;4406612;32;34138;-68
2023/07/25 10:31:33;;;;;;;11.30;3.78;;;;;;;24.67;66.37;98491.22;4414999;32;35153;-68
2023/07/25 10:34:02;;;;;;;7.87;3.05;;;;;;;24.89;66.43;98483.28;4414142;32;33875;-68
2023/07/25 10:36:30;;;;;;;10.43;3.97;;;;;;;24.37;68.19;98464.75;4418346;32;32565;-70
2023/07/25 10:39:06;;;;;;;5.37;2.67;;;;;;;24.87;67.40;98442.44;4414921;32;33586;-69
2023/07/25 10:41:34;;;;;;;7.32;2.92;;;;;;;24.59;67.09;98440.41;4411158;32;34642;-69
2023/07/25 10:44:01;;;;;;;6.60;3.20;;;;;;;24.39;66.78;98427.06;4412279;32;33652;-69
2023/07/25 10:46:32;;;;;;;7.20;3.08;;;;;;;25.30;64.48;98413.88;4414025;32;34249;-70
2023/07/25 10:49:04;;;;;;;6.25;3.10;;;;;;;24.84;64.45;98399.97;4416038;32;33552;-69
2023/07/25 10:51:52;;;;;;;6.68;2.85;;;;;;;25.15;64.17;98387.00;4399698;32;32435;-69
2023/07/25 10:54:22;;;;;;;5.80;2.90;;;;;;;25.53;62.86;98394.63;4418900;32;34063;-69
2023/07/25 10:57:14;;;;;;;5.75;2.65;;;;;;;25.61;63.38;98393.37;4415735;32;33746;-70
2023/07/25 11:00:00;;;;;;;5.60;2.65;;;;;;;25.88;61.87;98412.84;4415372;32;33144;-70
2023/07/25 11:02:33;;;;;;;6.47;2.90;;;;;;;25.96;61.34;98428.88;4421420;32;33796;-69
2023/07/25 11:05:13;;;;;;;5.70;2.90;;;;;;;25.62;62.49;98424.34;4423311;32;34556;-70
2023/07/25 11:07:46;;;;;;;6.93;3.08;;;;;;;26.23;60.17;98420.03;4424125;32;33695;-71
2023/07/25 11:10:41;;;;;;;4.40;2.37;;;;;;;26.52;58.34;98401.59;4422883;32;33854;-70
2023/07/25 11:13:08;;;;;;;4.93;2.30;;;;;;;26.51;57.62;98377.16;4341647;32;33386;-70
2023/07/25 11:15:36;;;;;;;6.25;3.05;;;;;;;26.44;56.73;98338.87;4329703;32;34223;-69
2023/07/25 11:18:14;;;;;;;6.50;3.08;;;;;;;26.51;57.16;98323.09;4302277;33;33466;-70
2023/07/25 11:20:42;;;;;;;6.50;2.65;;;;;;;25.93;58.25;98330.69;4309814;33;33186;-71
2023/07/25 11:23:09;;;;;;;3.30;2.05;;;;;;;26.31;57.13;98314.56;4310285;33;33500;-71
2023/07/25 11:25:37;;;;;;;5.37;2.62;;;;;;;26.60;56.60;98304.31;4312597;33;34872;-69
2023/07/25 11:28:05;;;;;;;5.20;2.45;;;;;;;26.32;57.40;98307.97;4301948;33;33870;-68
2023/07/25 11:30:34;;;;;;;5.18;2.45;;;;;;;26.70;56.65;98302.53;4312783;33;34408;-67
2023/07/25 11:33:02;;;;;;;5.90;3.37;;;;;;;26.91;56.89;98303.63;4309977;33;33798;-68
2023/07/25 11:35:29;;;;;;;6.35;2.70;;;;;;;26.83;56.77;98295.81;4305543;33;34747;-68
2023/07/25 11:38:00;;;;;;;5.40;2.35;;;;;;;26.85;56.33;98295.59;4310484;33;33855;-67